Tampa, Florida
Traffic Map
Current Weather Conditions
Tampa, Florida
Broken Clouds
Broken Clouds
83°
Feels Like: 86°
Wind Chill: 83° Ceiling: 3500
Heat Index: 86° Visibility: 10mi
Dew Point: 69° Wind: 9mph
Humidity: 63% Direction: 40° (NE)
Pressure: 30.08in Gusts: 0mph
Raw Report DataKTPA 181753Z 04008KT 10SM FEW025 BKN035 BKN220 28/21 A3008 RMK AO2 SLP186 T02830206 10283 20217 58015 $
Traffic Incident Summary
Active as of:
Severity:
Category:
InformationThere was an issue retrieving the traffic information for this location. Please try a different location or try again shortly.
Advertisements